sensor_id;sensor_type;location;lat;lon;timestamp;pressure;altitude;pressure_sealevel;temperature;humidity
75598;BME280;64179;51.090;-1.786;2023-02-04T00:01:34;102816.25;;;22.70;39.27
75598;BME280;64179;51.090;-1.786;2023-02-04T00:04:02;102810.25;;;22.68;39.52
75598;BME280;64179;51.090;-1.786;2023-02-04T00:06:28;102816.41;;;22.67;39.30
75598;BME280;64179;51.090;-1.786;2023-02-04T00:08:53;102811.53;;;22.61;39.66
75598;BME280;64179;51.090;-1.786;2023-02-04T00:11:19;102819.38;;;22.61;39.49
75598;BME280;64179;51.090;-1.786;2023-02-04T00:13:47;102810.69;;;22.61;39.66
75598;BME280;64179;51.090;-1.786;2023-02-04T00:16:12;102807.41;;;22.57;39.75
75598;BME280;64179;51.090;-1.786;2023-02-04T00:18:38;102806.66;;;22.55;39.63
75598;BME280;64179;51.090;-1.786;2023-02-04T00:21:03;102801.59;;;22.52;39.53
75598;BME280;64179;51.090;-1.786;2023-02-04T00:23:29;102819.91;;;22.52;39.53
75598;BME280;64179;51.090;-1.786;2023-02-04T00:25:54;102817.56;;;22.48;39.61
75598;BME280;64179;51.090;-1.786;2023-02-04T00:28:20;102813.34;;;22.45;39.74
75598;BME280;64179;51.090;-1.786;2023-02-04T00:30:45;102815.22;;;22.43;39.76
75598;BME280;64179;51.090;-1.786;2023-02-04T00:33:12;102818.75;;;22.42;39.81
75598;BME280;64179;51.090;-1.786;2023-02-04T00:35:37;102812.03;;;22.38;39.76
75598;BME280;64179;51.090;-1.786;2023-02-04T00:38:08;102810.34;;;22.37;39.71
75598;BME280;64179;51.090;-1.786;2023-02-04T00:40:34;102804.41;;;22.33;39.61
75598;BME280;64179;51.090;-1.786;2023-02-04T00:42:59;102807.16;;;22.32;39.93
75598;BME280;64179;51.090;-1.786;2023-02-04T00:45:25;102811.53;;;22.31;39.86
75598;BME280;64179;51.090;-1.786;2023-02-04T00:47:50;102817.75;;;22.29;39.75
75598;BME280;64179;51.090;-1.786;2023-02-04T00:50:16;102816.25;;;22.25;39.76
75598;BME280;64179;51.090;-1.786;2023-02-04T00:52:42;102814.75;;;22.21;39.91
75598;BME280;64179;51.090;-1.786;2023-02-04T00:55:08;102819.28;;;22.17;40.18
75598;BME280;64179;51.090;-1.786;2023-02-04T00:57:34;102820.13;;;22.18;40.14
75598;BME280;64179;51.090;-1.786;2023-02-04T01:00:00;102820.31;;;22.15;40.12
75598;BME280;64179;51.090;-1.786;2023-02-04T01:02:25;102822.00;;;22.16;40.11
75598;BME280;64179;51.090;-1.786;2023-02-04T01:04:50;102829.09;;;22.14;39.90
75598;BME280;64179;51.090;-1.786;2023-02-04T01:07:16;102824.84;;;22.11;39.94
75598;BME280;64179;51.090;-1.786;2023-02-04T01:09:42;102829.44;;;22.08;40.00
75598;BME280;64179;51.090;-1.786;2023-02-04T01:12:09;102836.50;;;22.05;40.25
75598;BME280;64179;51.090;-1.786;2023-02-04T01:14:38;102832.22;;;22.04;40.12
75598;BME280;64179;51.090;-1.786;2023-02-04T01:17:03;102843.59;;;22.03;40.15
75598;BME280;64179;51.090;-1.786;2023-02-04T01:19:31;102831.63;;;21.99;40.09
75598;BME280;64179;51.090;-1.786;2023-02-04T01:21:56;102836.09;;;21.97;39.93
75598;BME280;64179;51.090;-1.786;2023-02-04T01:24:22;102833.56;;;21.96;40.32
75598;BME280;64179;51.090;-1.786;2023-02-04T01:26:47;102842.41;;;21.93;40.23
75598;BME280;64179;51.090;-1.786;2023-02-04T01:29:13;102844.09;;;21.94;40.34
75598;BME280;64179;51.090;-1.786;2023-02-04T01:31:38;102849.47;;;21.91;40.24
75598;BME280;64179;51.090;-1.786;2023-02-04T01:34:04;102847.84;;;21.89;40.34
75598;BME280;64179;51.090;-1.786;2023-02-04T01:36:29;102845.41;;;21.86;40.11
75598;BME280;64179;51.090;-1.786;2023-02-04T01:38:55;102841.19;;;21.83;40.25
75598;BME280;64179;51.090;-1.786;2023-02-04T01:41:27;102845.59;;;21.83;40.28
75598;BME280;64179;51.090;-1.786;2023-02-04T01:43:53;102843.06;;;21.81;40.38
75598;BME280;64179;51.090;-1.786;2023-02-04T01:46:19;102845.75;;;21.80;40.15
75598;BME280;64179;51.090;-1.786;2023-02-04T01:48:44;102852.72;;;21.79;40.46
75598;BME280;64179;51.090;-1.786;2023-02-04T01:51:12;102858.88;;;21.78;40.24
75598;BME280;64179;51.090;-1.786;2023-02-04T01:53:39;102856.38;;;21.77;40.40
75598;BME280;64179;51.090;-1.786;2023-02-04T01:56:17;102858.13;;;21.76;40.46
75598;BME280;64179;51.090;-1.786;2023-02-04T01:58:44;102859.06;;;21.75;40.58
75598;BME280;64179;51.090;-1.786;2023-02-04T02:01:13;102858.28;;;21.73;40.53
75598;BME280;64179;51.090;-1.786;2023-02-04T02:03:39;102848.00;;;21.70;40.37
75598;BME280;64179;51.090;-1.786;2023-02-04T02:06:06;102854.00;;;21.72;40.50
75598;BME280;64179;51.090;-1.786;2023-02-04T02:08:35;102848.94;;;21.69;40.51
75598;BME280;64179;51.090;-1.786;2023-02-04T02:11:02;102851.63;;;21.68;40.58
75598;BME280;64179;51.090;-1.786;2023-02-04T02:13:30;102853.38;;;21.67;40.65
75598;BME280;64179;51.090;-1.786;2023-02-04T02:15:55;102850.09;;;21.63;40.46
75598;BME280;64179;51.090;-1.786;2023-02-04T02:18:21;102844.03;;;21.63;40.60
75598;BME280;64179;51.090;-1.786;2023-02-04T02:20:47;102845.91;;;21.61;40.48
75598;BME280;64179;51.090;-1.786;2023-02-04T02:23:49;102844.22;;;21.60;40.54
75598;BME280;64179;51.090;-1.786;2023-02-04T02:26:19;102841.59;;;21.60;40.53
75598;BME280;64179;51.090;-1.786;2023-02-04T02:28:45;102850.44;;;21.57;40.63
75598;BME280;64179;51.090;-1.786;2023-02-04T02:31:15;102846.03;;;21.58;40.22
75598;BME280;64179;51.090;-1.786;2023-02-04T02:33:41;102848.66;;;21.58;40.52
75598;BME280;64179;51.090;-1.786;2023-02-04T02:36:07;102844.28;;;21.58;40.45
75598;BME280;64179;51.090;-1.786;2023-02-04T02:38:35;102847.06;;;21.55;40.43
75598;BME280;64179;51.090;-1.786;2023-02-04T02:41:04;102841.16;;;21.52;40.49
75598;BME280;64179;51.090;-1.786;2023-02-04T02:43:32;102841.22;;;21.50;40.42
75598;BME280;64179;51.090;-1.786;2023-02-04T02:45:58;102836.16;;;21.47;40.58
75598;BME280;64179;51.090;-1.786;2023-02-04T02:48:25;102836.25;;;21.46;40.49
75598;BME280;64179;51.090;-1.786;2023-02-04T02:50:51;102839.63;;;21.48;40.48
75598;BME280;64179;51.090;-1.786;2023-02-04T02:53:18;102841.47;;;21.46;40.85
75598;BME280;64179;51.090;-1.786;2023-02-04T02:55:45;102844.19;;;21.44;40.62
75598;BME280;64179;51.090;-1.786;2023-02-04T02:58:24;102845.84;;;21.45;40.63
75598;BME280;64179;51.090;-1.786;2023-02-04T03:00:51;102846.69;;;21.46;40.53
75598;BME280;64179;51.090;-1.786;2023-02-04T03:03:22;102845.16;;;21.42;40.65
75598;BME280;64179;51.090;-1.786;2023-02-04T03:05:54;102847.84;;;21.40;40.67
75598;BME280;64179;51.090;-1.786;2023-02-04T03:08:20;102838.44;;;21.38;40.74
75598;BME280;64179;51.090;-1.786;2023-02-04T03:10:46;102840.25;;;21.36;40.70
75598;BME280;64179;51.090;-1.786;2023-02-04T03:13:13;102848.09;;;21.36;40.77
75598;BME280;64179;51.090;-1.786;2023-02-04T03:15:41;102847.31;;;21.34;40.61
75598;BME280;64179;51.090;-1.786;2023-02-04T03:18:10;102853.38;;;21.34;40.72
75598;BME280;64179;51.090;-1.786;2023-02-04T03:20:36;102844.09;;;21.29;40.49
75598;BME280;64179;51.090;-1.786;2023-02-04T03:23:05;102850.09;;;21.31;40.52
75598;BME280;64179;51.090;-1.786;2023-02-04T03:25:31;102833.84;;;21.26;40.71
75598;BME280;64179;51.090;-1.786;2023-02-04T03:27:57;102842.44;;;21.28;40.80
75598;BME280;64179;51.090;-1.786;2023-02-04T03:30:23;102832.16;;;21.25;40.71
75598;BME280;64179;51.090;-1.786;2023-02-04T03:32:52;102835.66;;;21.23;40.84
75598;BME280;64179;51.090;-1.786;2023-02-04T03:35:18;102833.06;;;21.23;40.67
75598;BME280;64179;51.090;-1.786;2023-02-04T03:37:46;102837.53;;;21.21;40.66
75598;BME280;64179;51.090;-1.786;2023-02-04T03:40:14;102829.84;;;21.18;40.69
75598;BME280;64179;51.090;-1.786;2023-02-04T03:42:43;102836.84;;;21.18;40.78
75598;BME280;64179;51.090;-1.786;2023-02-04T03:45:08;102837.69;;;21.18;40.74
75598;BME280;64179;51.090;-1.786;2023-02-04T03:47:34;102837.69;;;21.18;40.69
75598;BME280;64179;51.090;-1.786;2023-02-04T03:50:02;102836.75;;;21.19;40.78
75598;BME280;64179;51.090;-1.786;2023-02-04T03:52:30;102835.06;;;21.18;40.54
75598;BME280;64179;51.090;-1.786;2023-02-04T03:54:55;102832.75;;;21.12;40.61
75598;BME280;64179;51.090;-1.786;2023-02-04T03:57:23;102837.84;;;21.15;40.71
75598;BME280;64179;51.090;-1.786;2023-02-04T03:59:51;102838.91;;;21.11;40.96
75598;BME280;64179;51.090;-1.786;2023-02-04T04:02:17;102848.41;;;21.12;40.62
75598;BME280;64179;51.090;-1.786;2023-02-04T04:04:42;102845.78;;;21.12;40.67
75598;BME280;64179;51.090;-1.786;2023-02-04T04:07:08;102843.19;;;21.12;40.60
75598;BME280;64179;51.090;-1.786;2023-02-04T04:09:33;102835.59;;;21.08;40.61
75598;BME280;64179;51.090;-1.786;2023-02-04T04:11:59;102838.13;;;21.09;40.74
75598;BME280;64179;51.090;-1.786;2023-02-04T04:14:25;102846.88;;;21.08;40.60
75598;BME280;64179;51.090;-1.786;2023-02-04T04:16:53;102847.72;;;21.09;40.59
75598;BME280;64179;51.090;-1.786;2023-02-04T04:19:18;102836.69;;;21.04;40.88
75598;BME280;64179;51.090;-1.786;2023-02-04T04:21:46;102847.03;;;21.05;40.71
75598;BME280;64179;51.090;-1.786;2023-02-04T04:24:11;102849.72;;;21.04;40.62
75598;BME280;64179;51.090;-1.786;2023-02-04T04:26:37;102847.19;;;21.02;40.57
75598;BME280;64179;51.090;-1.786;2023-02-04T04:29:04;102859.31;;;21.03;40.70
75598;BME280;64179;51.090;-1.786;2023-02-04T04:31:29;102854.25;;;21.00;40.66
75598;BME280;64179;51.090;-1.786;2023-02-04T04:33:55;102857.78;;;20.99;40.53
75598;BME280;64179;51.090;-1.786;2023-02-04T04:36:20;102856.09;;;20.98;40.99
75598;BME280;64179;51.090;-1.786;2023-02-04T04:38:46;102869.16;;;20.98;40.66
75598;BME280;64179;51.090;-1.786;2023-02-04T04:41:11;102855.31;;;20.96;40.60
75598;BME280;64179;51.090;-1.786;2023-02-04T04:43:39;102858.09;;;20.93;40.57
75598;BME280;64179;51.090;-1.786;2023-02-04T04:46:05;102854.56;;;20.94;40.74
75598;BME280;64179;51.090;-1.786;2023-02-04T04:48:30;102854.72;;;20.91;40.53
75598;BME280;64179;51.090;-1.786;2023-02-04T04:50:55;102857.25;;;20.93;40.63
75598;BME280;64179;51.090;-1.786;2023-02-04T04:53:22;102860.78;;;20.92;40.76
75598;BME280;64179;51.090;-1.786;2023-02-04T04:55:47;102863.38;;;20.92;40.73
75598;BME280;64179;51.090;-1.786;2023-02-04T04:58:15;102858.22;;;20.90;40.63
75598;BME280;64179;51.090;-1.786;2023-02-04T05:00:41;102861.91;;;20.86;40.78
75598;BME280;64179;51.090;-1.786;2023-02-04T05:03:11;102865.44;;;20.85;40.87
75598;BME280;64179;51.090;-1.786;2023-02-04T05:05:38;102864.53;;;20.86;40.53
75598;BME280;64179;51.090;-1.786;2023-02-04T05:08:08;102867.31;;;20.83;40.85
75598;BME280;64179;51.090;-1.786;2023-02-04T05:10:38;102870.81;;;20.82;40.71
75598;BME280;64179;51.090;-1.786;2023-02-04T05:13:04;102864.75;;;20.81;40.73
75598;BME280;64179;51.090;-1.786;2023-02-04T05:15:29;102870.81;;;20.82;40.73
75598;BME280;64179;51.090;-1.786;2023-02-04T05:17:57;102870.13;;;20.78;40.63
75598;BME280;64179;51.090;-1.786;2023-02-04T05:20:24;102871.91;;;20.78;40.70
75598;BME280;64179;51.090;-1.786;2023-02-04T05:22:49;102870.13;;;20.78;40.59
75598;BME280;64179;51.090;-1.786;2023-02-04T05:25:15;102870.22;;;20.77;40.67
75598;BME280;64179;51.090;-1.786;2023-02-04T05:27:43;102874.66;;;20.75;40.65
75598;BME280;64179;51.090;-1.786;2023-02-04T05:30:12;102873.13;;;20.71;40.68
75598;BME280;64179;51.090;-1.786;2023-02-04T05:32:38;102857.47;;;20.71;40.92
75598;BME280;64179;51.090;-1.786;2023-02-04T05:35:04;102871.28;;;20.73;40.58
75598;BME280;64179;51.090;-1.786;2023-02-04T05:37:29;102867.91;;;20.71;40.69
75598;BME280;64179;51.090;-1.786;2023-02-04T05:39:55;102866.22;;;20.70;40.46
75598;BME280;64179;51.090;-1.786;2023-02-04T05:42:20;102866.22;;;20.70;40.73
75598;BME280;64179;51.090;-1.786;2023-02-04T05:44:48;102881.16;;;20.66;40.65
75598;BME280;64179;51.090;-1.786;2023-02-04T05:47:13;102875.97;;;20.66;40.90
75598;BME280;64179;51.090;-1.786;2023-02-04T05:49:39;102871.88;;;20.61;40.79
75598;BME280;64179;51.090;-1.786;2023-02-04T05:52:05;102875.25;;;20.63;40.66
75598;BME280;64179;51.090;-1.786;2023-02-04T05:54:33;102873.56;;;20.62;40.57
75598;BME280;64179;51.090;-1.786;2023-02-04T05:56:58;102887.66;;;20.58;40.83
75598;BME280;64179;51.090;-1.786;2023-02-04T05:59:26;102878.13;;;20.57;40.78
75598;BME280;64179;51.090;-1.786;2023-02-04T06:01:51;102878.06;;;20.58;40.64
75598;BME280;64179;51.090;-1.786;2023-02-04T06:04:17;102882.75;;;20.52;40.52
75598;BME280;64179;51.090;-1.786;2023-02-04T06:06:43;102884.59;;;20.50;40.97
75598;BME280;64179;51.090;-1.786;2023-02-04T06:09:11;102879.38;;;20.50;40.93
75598;BME280;64179;51.090;-1.786;2023-02-04T06:11:37;102884.31;;;20.56;40.92
75598;BME280;64179;51.090;-1.786;2023-02-04T06:14:05;102888.16;;;20.66;40.51
75598;BME280;64179;51.090;-1.786;2023-02-04T06:16:31;102884.34;;;20.73;40.45
75598;BME280;64179;51.090;-1.786;2023-02-04T06:18:56;102890.00;;;20.81;40.23
75598;BME280;64179;51.090;-1.786;2023-02-04T06:21:22;102896.44;;;20.91;40.10
75598;BME280;64179;51.090;-1.786;2023-02-04T06:23:47;102899.25;;;21.05;40.01
75598;BME280;64179;51.090;-1.786;2023-02-04T06:26:13;102898.00;;;21.12;39.83
75598;BME280;64179;51.090;-1.786;2023-02-04T06:28:38;102901.66;;;21.27;39.83
75598;BME280;64179;51.090;-1.786;2023-02-04T06:31:06;102899.41;;;21.37;39.55
75598;BME280;64179;51.090;-1.786;2023-02-04T06:33:34;102902.06;;;21.52;39.14
75598;BME280;64179;51.090;-1.786;2023-02-04T06:36:02;102903.97;;;21.66;39.11
75598;BME280;64179;51.090;-1.786;2023-02-04T06:38:28;102908.38;;;21.81;38.82
75598;BME280;64179;51.090;-1.786;2023-02-04T06:40:53;102913.72;;;21.95;38.64
75598;BME280;64179;51.090;-1.786;2023-02-04T06:43:21;102913.91;;;22.08;38.50
75598;BME280;64179;51.090;-1.786;2023-02-04T06:45:49;102918.41;;;22.22;38.32
75598;BME280;64179;51.090;-1.786;2023-02-04T06:48:15;102914.94;;;22.37;38.08
75598;BME280;64179;51.090;-1.786;2023-02-04T06:50:43;102912.84;;;22.43;38.00
75598;BME280;64179;51.090;-1.786;2023-02-04T06:53:11;102914.09;;;22.52;37.75
75598;BME280;64179;51.090;-1.786;2023-02-04T06:55:39;102911.91;;;22.60;37.73
75598;BME280;64179;51.090;-1.786;2023-02-04T06:58:04;102917.53;;;22.68;37.60
75598;BME280;64179;51.090;-1.786;2023-02-04T07:00:30;102916.28;;;22.75;37.50
75598;BME280;64179;51.090;-1.786;2023-02-04T07:02:55;102909.00;;;22.80;37.45
75598;BME280;64179;51.090;-1.786;2023-02-04T07:05:23;102913.72;;;22.90;37.34
75598;BME280;64179;51.090;-1.786;2023-02-04T07:07:48;102912.44;;;22.97;37.22
75598;BME280;64179;51.090;-1.786;2023-02-04T07:10:15;102915.53;;;23.03;37.06
75598;BME280;64179;51.090;-1.786;2023-02-04T07:12:43;102908.91;;;23.12;36.95
75598;BME280;64179;51.090;-1.786;2023-02-04T07:15:09;102908.56;;;23.18;37.09
75598;BME280;64179;51.090;-1.786;2023-02-04T07:17:39;102899.22;;;23.28;37.00
75598;BME280;64179;51.090;-1.786;2023-02-04T07:20:08;102909.97;;;23.38;36.77
75598;BME280;64179;51.090;-1.786;2023-02-04T07:22:34;102911.31;;;23.45;36.73
75598;BME280;64179;51.090;-1.786;2023-02-04T07:24:59;102908.28;;;23.52;36.68
75598;BME280;64179;51.090;-1.786;2023-02-04T07:27:24;102916.69;;;23.57;36.60
75598;BME280;64179;51.090;-1.786;2023-02-04T07:29:50;102917.81;;;23.67;36.38
75598;BME280;64179;51.090;-1.786;2023-02-04T07:32:15;102912.00;;;23.77;36.34
75598;BME280;64179;51.090;-1.786;2023-02-04T07:34:43;102911.75;;;23.81;36.42
75598;BME280;64179;51.090;-1.786;2023-02-04T07:37:09;102916.50;;;23.89;36.21
75598;BME280;64179;51.090;-1.786;2023-02-04T07:39:34;102925.59;;;23.97;36.08
75598;BME280;64179;51.090;-1.786;2023-02-04T07:41:59;102928.75;;;24.02;36.03
75598;BME280;64179;51.090;-1.786;2023-02-04T07:44:25;102922.66;;;24.02;36.11
75598;BME280;64179;51.090;-1.786;2023-02-04T07:46:53;102926.50;;;23.96;36.15
75598;BME280;64179;51.090;-1.786;2023-02-04T07:49:21;102942.25;;;23.96;36.14
75598;BME280;64179;51.090;-1.786;2023-02-04T07:51:46;102937.28;;;23.92;36.10
75598;BME280;64179;51.090;-1.786;2023-02-04T07:54:12;102940.84;;;23.91;36.26
75598;BME280;64179;51.090;-1.786;2023-02-04T07:56:37;102941.00;;;23.88;36.28
75598;BME280;64179;51.090;-1.786;2023-02-04T07:59:02;102937.84;;;23.83;36.53
75598;BME280;64179;51.090;-1.786;2023-02-04T08:01:28;102944.78;;;23.84;36.42
75598;BME280;64179;51.090;-1.786;2023-02-04T08:03:53;102952.72;;;23.82;36.44
75598;BME280;64179;51.090;-1.786;2023-02-04T08:06:21;102955.25;;;23.84;36.45
75598;BME280;64179;51.090;-1.786;2023-02-04T08:08:47;102963.03;;;23.85;36.42
75598;BME280;64179;51.090;-1.786;2023-02-04T08:11:14;102956.66;;;23.89;36.37
75598;BME280;64179;51.090;-1.786;2023-02-04T08:13:40;102953.09;;;23.90;36.40
75598;BME280;64179;51.090;-1.786;2023-02-04T08:16:05;102953.47;;;23.98;36.27
75598;BME280;64179;51.090;-1.786;2023-02-04T08:18:33;102958.06;;;24.09;36.13
75598;BME280;64179;51.090;-1.786;2023-02-04T08:20:59;102960.28;;;24.15;36.03
75598;BME280;64179;51.090;-1.786;2023-02-04T08:23:25;102958.63;;;24.14;36.17
75598;BME280;64179;51.090;-1.786;2023-02-04T08:25:53;102971.53;;;24.17;36.16
75598;BME280;64179;51.090;-1.786;2023-02-04T08:28:21;102970.63;;;24.18;35.98
75598;BME280;64179;51.090;-1.786;2023-02-04T08:30:46;102982.91;;;24.18;36.15
75598;BME280;64179;51.090;-1.786;2023-02-04T08:33:12;102981.25;;;24.15;36.50
75598;BME280;64179;51.090;-1.786;2023-02-04T08:35:37;102982.13;;;24.16;36.14
75598;BME280;64179;51.090;-1.786;2023-02-04T08:38:03;102979.78;;;24.11;36.14
75598;BME280;64179;51.090;-1.786;2023-02-04T08:40:28;102982.41;;;24.11;36.26
75598;BME280;64179;51.090;-1.786;2023-02-04T08:42:54;102982.50;;;24.09;36.18
75598;BME280;64179;51.090;-1.786;2023-02-04T08:45:19;102987.09;;;24.06;36.38
75598;BME280;64179;51.090;-1.786;2023-02-04T08:47:47;102984.56;;;24.04;36.38
75598;BME280;64179;51.090;-1.786;2023-02-04T08:50:13;102986.31;;;24.04;36.16
75598;BME280;64179;51.090;-1.786;2023-02-04T08:52:38;102986.63;;;23.99;36.51
75598;BME280;64179;51.090;-1.786;2023-02-04T08:55:07;102989.53;;;23.95;36.60
75598;BME280;64179;51.090;-1.786;2023-02-04T08:57:32;103002.44;;;23.84;36.89
75598;BME280;64179;51.090;-1.786;2023-02-04T08:59:59;102990.47;;;23.80;36.93
75598;BME280;64179;51.090;-1.786;2023-02-04T09:02:24;102990.91;;;23.72;36.96
75598;BME280;64179;51.090;-1.786;2023-02-04T09:04:50;102991.19;;;23.67;36.94
75598;BME280;64179;51.090;-1.786;2023-02-04T09:07:15;102998.13;;;23.68;37.12
75598;BME280;64179;51.090;-1.786;2023-02-04T09:09:41;102999.41;;;23.61;37.23
75598;BME280;64179;51.090;-1.786;2023-02-04T09:12:08;103008.41;;;23.57;37.22
75598;BME280;64179;51.090;-1.786;2023-02-04T09:14:36;103004.44;;;23.50;37.27
75598;BME280;64179;51.090;-1.786;2023-02-04T09:17:02;103013.34;;;23.48;37.44
75598;BME280;64179;51.090;-1.786;2023-02-04T09:19:28;103012.06;;;23.39;37.54
75598;BME280;64179;51.090;-1.786;2023-02-04T09:21:53;103010.38;;;23.38;37.43
75598;BME280;64179;51.090;-1.786;2023-02-04T09:24:19;103016.72;;;23.34;37.38
75598;BME280;64179;51.090;-1.786;2023-02-04T09:26:48;103017.06;;;23.28;37.68
75598;BME280;64179;51.090;-1.786;2023-02-04T09:29:13;103014.81;;;23.22;37.82
75598;BME280;64179;51.090;-1.786;2023-02-04T09:31:43;103019.66;;;23.14;40.17
75598;BME280;64179;51.090;-1.786;2023-02-04T09:34:11;103024.03;;;23.13;38.78
75598;BME280;64179;51.090;-1.786;2023-02-04T09:36:39;103030.88;;;23.16;38.83
75598;BME280;64179;51.090;-1.786;2023-02-04T09:39:07;103032.06;;;23.10;38.84
75598;BME280;64179;51.090;-1.786;2023-02-04T09:41:35;103028.84;;;23.05;38.94
75598;BME280;64179;51.090;-1.786;2023-02-04T09:44:03;103032.59;;;23.01;38.90
75598;BME280;64179;51.090;-1.786;2023-02-04T09:46:30;103016.38;;;22.95;38.71
75598;BME280;64179;51.090;-1.786;2023-02-04T09:48:57;103017.56;;;22.89;39.15
75598;BME280;64179;51.090;-1.786;2023-02-04T09:51:28;103018.41;;;22.90;39.50
75598;BME280;64179;51.090;-1.786;2023-02-04T09:54:08;103023.91;;;22.85;39.88
75598;BME280;64179;51.090;-1.786;2023-02-04T09:56:36;103034.56;;;22.82;39.64
75598;BME280;64179;51.090;-1.786;2023-02-04T09:59:05;103034.78;;;22.77;39.67
75598;BME280;64179;51.090;-1.786;2023-02-04T10:01:35;103035.75;;;22.76;39.82
75598;BME280;64179;51.090;-1.786;2023-02-04T10:04:01;103037.78;;;22.71;39.91
75598;BME280;64179;51.090;-1.786;2023-02-04T10:06:30;103034.59;;;22.65;40.03
75598;BME280;64179;51.090;-1.786;2023-02-04T10:08:56;103037.28;;;22.63;40.25
75598;BME280;64179;51.090;-1.786;2023-02-04T10:11:22;103036.53;;;22.61;39.93
75598;BME280;64179;51.090;-1.786;2023-02-04T10:13:53;103037.63;;;22.57;40.02
75598;BME280;64179;51.090;-1.786;2023-02-04T10:16:28;103037.03;;;22.52;39.88
75598;BME280;64179;51.090;-1.786;2023-02-04T10:19:00;103038.81;;;22.52;40.09
75598;BME280;64179;51.090;-1.786;2023-02-04T10:21:29;103038.22;;;22.46;39.99
75598;BME280;64179;51.090;-1.786;2023-02-04T10:23:58;103046.25;;;22.43;40.02
75598;BME280;64179;51.090;-1.786;2023-02-04T10:26:28;103038.63;;;22.39;40.15
75598;BME280;64179;51.090;-1.786;2023-02-04T10:29:02;103042.31;;;22.35;40.01
75598;BME280;64179;51.090;-1.786;2023-02-04T10:31:40;103040.81;;;22.31;40.09
75598;BME280;64179;51.090;-1.786;2023-02-04T10:34:10;103047.81;;;22.30;40.05
75598;BME280;64179;51.090;-1.786;2023-02-04T10:36:40;103048.06;;;22.26;40.14
75598;BME280;64179;51.090;-1.786;2023-02-04T10:39:11;103052.50;;;22.24;40.15
75598;BME280;64179;51.090;-1.786;2023-02-04T10:41:44;103060.53;;;22.21;40.24
75598;BME280;64179;51.090;-1.786;2023-02-04T10:44:12;103062.38;;;22.19;40.24
75598;BME280;64179;51.090;-1.786;2023-02-04T10:46:38;103060.84;;;22.15;40.21
75598;BME280;64179;51.090;-1.786;2023-02-04T10:49:23;103062.69;;;22.13;40.25
75598;BME280;64179;51.090;-1.786;2023-02-04T10:51:50;103054.00;;;22.12;40.24
75598;BME280;64179;51.090;-1.786;2023-02-04T10:54:19;103064.56;;;22.11;40.43
75598;BME280;64179;51.090;-1.786;2023-02-04T10:56:57;103062.94;;;22.08;40.16
75598;BME280;64179;51.090;-1.786;2023-02-04T10:59:25;103051.78;;;22.04;40.29
75598;BME280;64179;51.090;-1.786;2023-02-04T11:01:54;103056.41;;;21.99;40.11
75598;BME280;64179;51.090;-1.786;2023-02-04T11:04:22;103058.09;;;22.00;40.19
75598;BME280;64179;51.090;-1.786;2023-02-04T11:06:49;103063.47;;;21.97;40.32
75598;BME280;64179;51.090;-1.786;2023-02-04T11:09:17;103067.22;;;21.92;40.42
75598;BME280;64179;51.090;-1.786;2023-02-04T11:11:48;103062.91;;;21.91;40.45
75598;BME280;64179;51.090;-1.786;2023-02-04T11:14:26;103062.13;;;21.89;40.30
75598;BME280;64179;51.090;-1.786;2023-02-04T11:16:53;103055.31;;;21.86;40.48
75598;BME280;64179;51.090;-1.786;2023-02-04T11:19:32;103055.25;;;21.88;40.27
75598;BME280;64179;51.090;-1.786;2023-02-04T11:22:21;103053.78;;;21.82;40.36
75598;BME280;64179;51.090;-1.786;2023-02-04T11:24:47;103055.78;;;21.77;40.43
75598;BME280;64179;51.090;-1.786;2023-02-04T11:27:22;103052.41;;;21.75;40.61
75598;BME280;64179;51.090;-1.786;2023-02-04T11:29:49;103058.53;;;21.74;40.60
75598;BME280;64179;51.090;-1.786;2023-02-04T11:32:34;103065.69;;;21.71;40.44
75598;BME280;64179;51.090;-1.786;2023-02-04T11:37:40;103061.47;;;21.68;40.52
75598;BME280;64179;51.090;-1.786;2023-02-04T11:40:34;103062.38;;;21.67;40.48
75598;BME280;64179;51.090;-1.786;2023-02-04T11:43:07;103065.16;;;21.64;40.65
75598;BME280;64179;51.090;-1.786;2023-02-04T11:45:35;103064.38;;;21.62;40.47
75598;BME280;64179;51.090;-1.786;2023-02-04T11:48:11;103058.53;;;21.57;40.58
75598;BME280;64179;51.090;-1.786;2023-02-04T11:50:38;103056.84;;;21.56;40.47
75598;BME280;64179;51.090;-1.786;2023-02-04T11:53:07;103058.63;;;21.55;40.75
75598;BME280;64179;51.090;-1.786;2023-02-04T11:55:35;103057.78;;;21.55;40.52
75598;BME280;64179;51.090;-1.786;2023-02-04T11:58:13;103056.16;;;21.52;40.62
75598;BME280;64179;51.090;-1.786;2023-02-04T12:00:40;103054.47;;;21.51;40.47
75598;BME280;64179;51.090;-1.786;2023-02-04T12:03:23;103058.09;;;21.49;40.67
75598;BME280;64179;51.090;-1.786;2023-02-04T12:05:49;103055.53;;;21.47;40.68
75598;BME280;64179;51.090;-1.786;2023-02-04T12:08:34;103060.16;;;21.42;40.87
75598;BME280;64179;51.090;-1.786;2023-02-04T12:11:09;103058.44;;;21.41;40.79
75598;BME280;64179;51.090;-1.786;2023-02-04T12:13:47;103068.03;;;21.41;40.68
75598;BME280;64179;51.090;-1.786;2023-02-04T12:16:14;103066.44;;;21.38;40.81
75598;BME280;64179;51.090;-1.786;2023-02-04T12:18:39;103065.72;;;21.35;40.87
75598;BME280;64179;51.090;-1.786;2023-02-04T12:21:05;103068.44;;;21.33;40.76
75598;BME280;64179;51.090;-1.786;2023-02-04T12:23:33;103067.59;;;21.33;40.74
75598;BME280;64179;51.090;-1.786;2023-02-04T12:25:58;103060.66;;;21.32;40.83
75598;BME280;64179;51.090;-1.786;2023-02-04T12:28:24;103063.41;;;21.29;40.93
75598;BME280;64179;51.090;-1.786;2023-02-04T12:30:52;103054.81;;;21.27;40.80
75598;BME280;64179;51.090;-1.786;2023-02-04T12:33:17;103062.72;;;21.25;41.05
75598;BME280;64179;51.090;-1.786;2023-02-04T12:35:43;103064.50;;;21.25;40.87
75598;BME280;64179;51.090;-1.786;2023-02-04T12:38:08;103062.78;;;21.23;40.92
75598;BME280;64179;51.090;-1.786;2023-02-04T12:40:34;103063.63;;;21.24;40.90
75598;BME280;64179;51.090;-1.786;2023-02-04T12:43:00;103060.19;;;21.23;40.82
75598;BME280;64179;51.090;-1.786;2023-02-04T12:45:26;103062.94;;;21.20;40.87